sensor_id;sensor_type;location;lat;lon;timestamp;pressure;altitude;pressure_sealevel;temperature;humidity
75219;BME280;63801;49.414;19.474;2023-06-14T00:00:39;93688.06;;;6.67;71.54
75219;BME280;63801;49.414;19.474;2023-06-14T00:02:41;93683.47;;;6.68;71.47
75219;BME280;63801;49.414;19.474;2023-06-14T00:04:44;93684.25;;;6.68;71.54
75219;BME280;63801;49.414;19.474;2023-06-14T00:06:45;93685.38;;;6.67;71.74
75219;BME280;63801;49.414;19.474;2023-06-14T00:08:46;93685.03;;;6.69;71.59
75219;BME280;63801;49.414;19.474;2023-06-14T00:10:47;93682.69;;;6.67;71.70
75219;BME280;63801;49.414;19.474;2023-06-14T00:12:47;93688.97;;;6.71;71.69
75219;BME280;63801;49.414;19.474;2023-06-14T00:14:48;93682.16;;;6.74;71.67
75219;BME280;63801;49.414;19.474;2023-06-14T00:16:49;93677.16;;;6.72;71.74
75219;BME280;63801;49.414;19.474;2023-06-14T00:18:49;93683.44;;;6.76;71.95
75219;BME280;63801;49.414;19.474;2023-06-14T00:20:51;93677.28;;;6.76;71.64
75219;BME280;63801;49.414;19.474;2023-06-14T00:22:52;93685.44;;;6.80;71.88
75219;BME280;63801;49.414;19.474;2023-06-14T00:24:52;93685.44;;;6.80;71.98
75219;BME280;63801;49.414;19.474;2023-06-14T00:26:52;93684.53;;;6.75;71.79
75219;BME280;63801;49.414;19.474;2023-06-14T00:28:55;93688.44;;;6.78;71.80
75219;BME280;63801;49.414;19.474;2023-06-14T00:30:56;93684.53;;;6.75;72.13
75219;BME280;63801;49.414;19.474;2023-06-14T00:32:57;93682.28;;;6.77;72.05
75219;BME280;63801;49.414;19.474;2023-06-14T00:34:57;93674.25;;;6.77;72.03
75219;BME280;63801;49.414;19.474;2023-06-14T00:36:58;93680.75;;;6.76;72.15
75219;BME280;63801;49.414;19.474;2023-06-14T00:38:59;93681.19;;;6.78;72.11
75219;BME280;63801;49.414;19.474;2023-06-14T00:40:59;93682.44;;;6.81;72.11
75219;BME280;63801;49.414;19.474;2023-06-14T00:43:00;93679.09;;;6.84;72.22
75219;BME280;63801;49.414;19.474;2023-06-14T00:45:00;93673.88;;;6.88;72.26
75219;BME280;63801;49.414;19.474;2023-06-14T00:47:01;93668.31;;;6.93;72.45
75219;BME280;63801;49.414;19.474;2023-06-14T00:49:02;93673.50;;;6.98;72.52
75219;BME280;63801;49.414;19.474;2023-06-14T00:51:02;93671.06;;;7.05;72.38
75219;BME280;63801;49.414;19.474;2023-06-14T00:53:04;93672.88;;;7.13;72.49
75219;BME280;63801;49.414;19.474;2023-06-14T00:55:05;93673.16;;;7.20;72.64
75219;BME280;63801;49.414;19.474;2023-06-14T00:57:05;93665.03;;;7.29;72.61
75219;BME280;63801;49.414;19.474;2023-06-14T00:59:07;93673.25;;;7.44;72.85
75219;BME280;63801;49.414;19.474;2023-06-14T01:01:07;93667.25;;;7.59;73.06
75219;BME280;63801;49.414;19.474;2023-06-14T01:03:08;93672.66;;;7.72;72.76
75219;BME280;63801;49.414;19.474;2023-06-14T01:05:13;93670.78;;;7.84;72.73
75219;BME280;63801;49.414;19.474;2023-06-14T01:07:40;93655.25;;;7.90;72.86
75219;BME280;63801;49.414;19.474;2023-06-14T01:12:05;93666.47;;;8.16;72.62
75219;BME280;63801;49.414;19.474;2023-06-14T01:14:08;93660.19;;;8.24;72.66
75219;BME280;63801;49.414;19.474;2023-06-14T01:16:10;93662.00;;;8.32;72.70
75219;BME280;63801;49.414;19.474;2023-06-14T01:18:10;93652.53;;;8.35;72.48
75219;BME280;63801;49.414;19.474;2023-06-14T01:20:19;93655.78;;;8.40;72.77
75219;BME280;63801;49.414;19.474;2023-06-14T01:22:20;93646.56;;;8.41;72.64
75219;BME280;63801;49.414;19.474;2023-06-14T01:24:21;93659.69;;;8.43;73.06
75219;BME280;63801;49.414;19.474;2023-06-14T01:26:25;93658.69;;;8.35;72.79
75219;BME280;63801;49.414;19.474;2023-06-14T01:28:29;93655.53;;;8.33;72.88
75219;BME280;63801;49.414;19.474;2023-06-14T01:30:33;93653.03;;;8.28;72.75
75219;BME280;63801;49.414;19.474;2023-06-14T01:32:34;93664.56;;;8.29;72.88
75219;BME280;63801;49.414;19.474;2023-06-14T01:34:35;93656.22;;;8.30;73.02
75219;BME280;63801;49.414;19.474;2023-06-14T01:36:36;93647.66;;;8.28;72.93
75219;BME280;63801;49.414;19.474;2023-06-14T01:38:41;93651.72;;;8.34;73.19
75219;BME280;63801;49.414;19.474;2023-06-14T01:40:43;93647.94;;;8.35;73.10
75219;BME280;63801;49.414;19.474;2023-06-14T01:42:46;93658.00;;;8.38;73.02
75219;BME280;63801;49.414;19.474;2023-06-14T01:44:47;93656.00;;;8.35;73.03
75219;BME280;63801;49.414;19.474;2023-06-14T01:46:48;93660.91;;;8.33;73.10
75219;BME280;63801;49.414;19.474;2023-06-14T01:48:49;93656.31;;;8.34;73.07
75219;BME280;63801;49.414;19.474;2023-06-14T01:50:50;93661.81;;;8.37;73.64
75219;BME280;63801;49.414;19.474;2023-06-14T01:52:50;93656.53;;;8.41;73.26
75219;BME280;63801;49.414;19.474;2023-06-14T01:54:51;93645.34;;;8.39;73.30
75219;BME280;63801;49.414;19.474;2023-06-14T01:56:51;93650.63;;;8.35;73.35
75219;BME280;63801;49.414;19.474;2023-06-14T01:58:52;93659.91;;;8.38;73.42
75219;BME280;63801;49.414;19.474;2023-06-14T02:00:53;93659.78;;;8.34;73.40
75219;BME280;63801;49.414;19.474;2023-06-14T02:02:55;93658.56;;;8.32;73.18
75219;BME280;63801;49.414;19.474;2023-06-14T02:04:55;93656.22;;;8.30;73.40
75219;BME280;63801;49.414;19.474;2023-06-14T02:06:57;93654.94;;;8.28;73.38
75219;BME280;63801;49.414;19.474;2023-06-14T02:08:57;93664.56;;;8.29;73.36
75219;BME280;63801;49.414;19.474;2023-06-14T02:10:58;93663.94;;;8.32;73.51
75219;BME280;63801;49.414;19.474;2023-06-14T02:12:58;93662.47;;;8.34;73.57
75219;BME280;63801;49.414;19.474;2023-06-14T02:14:58;93666.84;;;8.39;73.63
75219;BME280;63801;49.414;19.474;2023-06-14T02:16:59;93665.38;;;8.41;73.94
75219;BME280;63801;49.414;19.474;2023-06-14T02:19:01;93672.31;;;8.42;73.54
75219;BME280;63801;49.414;19.474;2023-06-14T02:21:01;93661.38;;;8.35;73.50
75219;BME280;63801;49.414;19.474;2023-06-14T02:23:01;93667.75;;;8.31;73.22
75219;BME280;63801;49.414;19.474;2023-06-14T02:25:02;93667.75;;;8.31;73.64
75219;BME280;63801;49.414;19.474;2023-06-14T02:27:04;93669.16;;;8.28;73.52
75219;BME280;63801;49.414;19.474;2023-06-14T02:29:05;93665.25;;;8.26;73.64
75219;BME280;63801;49.414;19.474;2023-06-14T02:31:05;93666.69;;;8.23;73.60
75219;BME280;63801;49.414;19.474;2023-06-14T02:33:06;93667.81;;;8.22;73.58
75219;BME280;63801;49.414;19.474;2023-06-14T02:35:07;93666.25;;;8.21;73.58
75219;BME280;63801;49.414;19.474;2023-06-14T02:37:08;93676.53;;;8.19;73.84
75219;BME280;63801;49.414;19.474;2023-06-14T02:39:09;93676.88;;;8.18;73.82
75219;BME280;63801;49.414;19.474;2023-06-14T02:41:10;93671.41;;;8.14;73.86
75219;BME280;63801;49.414;19.474;2023-06-14T02:43:10;93682.16;;;8.14;73.82
75219;BME280;63801;49.414;19.474;2023-06-14T02:45:11;93657.63;;;8.03;74.03
75219;BME280;63801;49.414;19.474;2023-06-14T02:47:11;93667.78;;;8.10;73.83
75219;BME280;63801;49.414;19.474;2023-06-14T02:49:11;93673.16;;;8.10;73.87
75219;BME280;63801;49.414;19.474;2023-06-14T02:51:12;93669.72;;;8.09;74.03
75219;BME280;63801;49.414;19.474;2023-06-14T02:53:12;93655.16;;;8.10;74.20
75219;BME280;63801;49.414;19.474;2023-06-14T02:55:13;93654.84;;;8.12;74.28
75219;BME280;63801;49.414;19.474;2023-06-14T02:57:14;93654.16;;;8.15;74.36
75219;BME280;63801;49.414;19.474;2023-06-14T02:59:15;93651.72;;;8.22;74.23
75219;BME280;63801;49.414;19.474;2023-06-14T03:01:15;93661.00;;;8.25;74.22
75219;BME280;63801;49.414;19.474;2023-06-14T03:03:17;93655.63;;;8.25;74.42
75219;BME280;63801;49.414;19.474;2023-06-14T03:05:18;93658.91;;;8.30;74.30
75219;BME280;63801;49.414;19.474;2023-06-14T03:07:21;93656.78;;;8.36;74.35
75219;BME280;63801;49.414;19.474;2023-06-14T03:09:23;93657.31;;;8.41;74.45
75219;BME280;63801;49.414;19.474;2023-06-14T03:11:23;93657.88;;;8.47;74.35
75219;BME280;63801;49.414;19.474;2023-06-14T03:13:24;93654.19;;;8.51;74.51
75219;BME280;63801;49.414;19.474;2023-06-14T03:15:24;93655.88;;;8.56;74.53
75219;BME280;63801;49.414;19.474;2023-06-14T03:17:24;93651.06;;;8.62;74.52
75219;BME280;63801;49.414;19.474;2023-06-14T03:19:30;93652.63;;;8.63;74.45
75219;BME280;63801;49.414;19.474;2023-06-14T03:21:30;93658.19;;;8.70;74.54
75219;BME280;63801;49.414;19.474;2023-06-14T03:23:31;93656.41;;;8.74;74.38
75219;BME280;63801;49.414;19.474;2023-06-14T03:25:31;93662.66;;;8.78;74.60
75219;BME280;63801;49.414;19.474;2023-06-14T03:27:35;93645.84;;;8.81;74.53
75219;BME280;63801;49.414;19.474;2023-06-14T03:29:35;93656.38;;;8.86;74.54
75219;BME280;63801;49.414;19.474;2023-06-14T03:31:36;93657.63;;;8.88;74.55
75219;BME280;63801;49.414;19.474;2023-06-14T03:33:36;93651.22;;;8.93;74.46
75219;BME280;63801;49.414;19.474;2023-06-14T03:35:36;93650.06;;;8.94;74.55
75219;BME280;63801;49.414;19.474;2023-06-14T03:37:37;93651.66;;;8.95;74.42
75219;BME280;63801;49.414;19.474;2023-06-14T03:39:37;93642.94;;;8.86;74.55
75219;BME280;63801;49.414;19.474;2023-06-14T03:41:38;93648.31;;;8.86;74.55
75219;BME280;63801;49.414;19.474;2023-06-14T03:43:38;93655.72;;;8.89;74.43
75219;BME280;63801;49.414;19.474;2023-06-14T03:45:38;93656.38;;;8.86;74.81
75219;BME280;63801;49.414;19.474;2023-06-14T03:47:39;93645.41;;;8.79;74.79
75219;BME280;63801;49.414;19.474;2023-06-14T03:49:39;93651.47;;;8.76;74.92
75219;BME280;63801;49.414;19.474;2023-06-14T03:51:40;93653.81;;;8.77;74.90
75219;BME280;63801;49.414;19.474;2023-06-14T03:53:41;93652.38;;;8.80;75.09
75219;BME280;63801;49.414;19.474;2023-06-14T03:55:41;93657.94;;;8.87;75.04
75219;BME280;63801;49.414;19.474;2023-06-14T03:57:42;93660.41;;;8.92;75.30
75219;BME280;63801;49.414;19.474;2023-06-14T03:59:42;93658.59;;;8.96;75.02
75219;BME280;63801;49.414;19.474;2023-06-14T04:01:43;93662.16;;;9.00;75.18
75219;BME280;63801;49.414;19.474;2023-06-14T04:03:45;93662.25;;;9.03;75.17
75219;BME280;63801;49.414;19.474;2023-06-14T04:05:45;93648.88;;;8.91;75.16
75219;BME280;63801;49.414;19.474;2023-06-14T04:07:49;93663.06;;;9.04;75.24
75219;BME280;63801;49.414;19.474;2023-06-14T04:09:50;93671.13;;;9.04;75.05
75219;BME280;63801;49.414;19.474;2023-06-14T04:11:52;93656.47;;;9.01;75.14
75219;BME280;63801;49.414;19.474;2023-06-14T04:13:52;93670.47;;;9.07;74.96
75219;BME280;63801;49.414;19.474;2023-06-14T04:15:53;93676.94;;;9.06;75.22
75219;BME280;63801;49.414;19.474;2023-06-14T04:17:56;93683.00;;;9.03;75.15
75219;BME280;63801;49.414;19.474;2023-06-14T04:19:57;93678.19;;;8.96;75.16
75219;BME280;63801;49.414;19.474;2023-06-14T04:21:59;93686.28;;;8.96;75.19
75219;BME280;63801;49.414;19.474;2023-06-14T04:24:02;93677.41;;;8.96;75.26
75219;BME280;63801;49.414;19.474;2023-06-14T04:26:02;93669.69;;;8.94;75.42
75219;BME280;63801;49.414;19.474;2023-06-14T04:28:02;93673.16;;;9.07;75.51
75219;BME280;63801;49.414;19.474;2023-06-14T04:30:04;93681.84;;;9.16;75.58
75219;BME280;63801;49.414;19.474;2023-06-14T04:32:04;93674.78;;;9.24;75.54
75219;BME280;63801;49.414;19.474;2023-06-14T04:34:06;93672.28;;;9.31;75.48
75219;BME280;63801;49.414;19.474;2023-06-14T04:36:06;93673.59;;;9.37;75.43
75219;BME280;63801;49.414;19.474;2023-06-14T04:38:07;93676.06;;;9.42;75.44
75219;BME280;63801;49.414;19.474;2023-06-14T04:40:10;93677.38;;;9.48;75.36
75219;BME280;63801;49.414;19.474;2023-06-14T04:42:11;93669.50;;;9.55;75.25
75219;BME280;63801;49.414;19.474;2023-06-14T04:44:12;93676.97;;;9.62;75.42
75219;BME280;63801;49.414;19.474;2023-06-14T04:46:12;93673.25;;;9.66;75.20
75219;BME280;63801;49.414;19.474;2023-06-14T04:48:14;93677.94;;;9.69;75.19
75219;BME280;63801;49.414;19.474;2023-06-14T04:50:15;93677.59;;;9.71;75.23
75219;BME280;63801;49.414;19.474;2023-06-14T04:52:18;93669.19;;;9.72;75.11
75219;BME280;63801;49.414;19.474;2023-06-14T04:54:20;93671.97;;;9.76;75.39
75219;BME280;63801;49.414;19.474;2023-06-14T04:56:21;93675.88;;;9.78;75.00
75219;BME280;63801;49.414;19.474;2023-06-14T04:58:21;93680.13;;;9.79;75.24
75219;BME280;63801;49.414;19.474;2023-06-14T05:00:21;93672.94;;;9.83;75.14
75219;BME280;63801;49.414;19.474;2023-06-14T05:02:24;93680.44;;;9.90;75.16
75219;BME280;63801;49.414;19.474;2023-06-14T05:04:25;93675.81;;;9.90;74.94
75219;BME280;63801;49.414;19.474;2023-06-14T05:06:28;93689.56;;;10.01;75.21
75219;BME280;63801;49.414;19.474;2023-06-14T05:08:29;93678.53;;;10.06;75.27
75219;BME280;63801;49.414;19.474;2023-06-14T05:10:29;93669.75;;;10.09;75.36
75219;BME280;63801;49.414;19.474;2023-06-14T05:12:30;93689.44;;;10.25;75.19
75219;BME280;63801;49.414;19.474;2023-06-14T05:14:30;93686.56;;;10.34;75.33
75219;BME280;63801;49.414;19.474;2023-06-14T05:16:31;93680.56;;;10.41;75.13
75219;BME280;63801;49.414;19.474;2023-06-14T05:18:31;93684.66;;;10.50;75.13
75219;BME280;63801;49.414;19.474;2023-06-14T05:20:34;93684.13;;;10.60;74.95
75219;BME280;63801;49.414;19.474;2023-06-14T05:22:34;93692.75;;;10.66;74.95
75219;BME280;63801;49.414;19.474;2023-06-14T05:24:35;93690.53;;;10.71;74.91
75219;BME280;63801;49.414;19.474;2023-06-14T05:26:35;93686.53;;;10.81;75.18
75219;BME280;63801;49.414;19.474;2023-06-14T05:28:35;93676.31;;;10.90;75.00
75219;BME280;63801;49.414;19.474;2023-06-14T05:30:38;93687.59;;;11.11;74.94
75219;BME280;63801;49.414;19.474;2023-06-14T05:32:39;93694.34;;;11.21;74.67
75219;BME280;63801;49.414;19.474;2023-06-14T05:34:40;93694.00;;;11.22;74.30
75219;BME280;63801;49.414;19.474;2023-06-14T05:36:40;93702.03;;;11.19;73.93
75219;BME280;63801;49.414;19.474;2023-06-14T05:38:40;93699.09;;;11.08;73.69
75219;BME280;63801;49.414;19.474;2023-06-14T05:40:41;93698.56;;;11.03;74.23
75219;BME280;63801;49.414;19.474;2023-06-14T05:42:41;93706.31;;;11.04;74.21
75219;BME280;63801;49.414;19.474;2023-06-14T05:44:41;93692.97;;;11.11;74.44
75219;BME280;63801;49.414;19.474;2023-06-14T05:46:42;93687.75;;;11.18;74.11
75219;BME280;63801;49.414;19.474;2023-06-14T05:48:42;93697.63;;;11.30;74.09
75219;BME280;63801;49.414;19.474;2023-06-14T05:50:42;93703.81;;;11.31;73.80
75219;BME280;63801;49.414;19.474;2023-06-14T05:52:43;93700.66;;;11.28;73.92
75219;BME280;63801;49.414;19.474;2023-06-14T05:54:43;93696.63;;;11.38;74.06
75219;BME280;63801;49.414;19.474;2023-06-14T05:56:44;93695.28;;;11.48;74.04
75219;BME280;63801;49.414;19.474;2023-06-14T05:58:47;93704.81;;;11.61;74.00
75219;BME280;63801;49.414;19.474;2023-06-14T06:00:48;93700.88;;;11.74;73.72
75219;BME280;63801;49.414;19.474;2023-06-14T06:02:48;93695.63;;;11.81;73.76
75219;BME280;63801;49.414;19.474;2023-06-14T06:04:49;93699.78;;;11.98;73.64
75219;BME280;63801;49.414;19.474;2023-06-14T06:06:50;93700.75;;;12.09;73.45
75219;BME280;63801;49.414;19.474;2023-06-14T06:08:50;93699.09;;;12.24;73.66
75219;BME280;63801;49.414;19.474;2023-06-14T06:10:50;93707.22;;;12.46;73.78
75219;BME280;63801;49.414;19.474;2023-06-14T06:12:51;93697.94;;;12.70;73.80
75219;BME280;63801;49.414;19.474;2023-06-14T06:14:52;93705.66;;;12.94;73.47
75219;BME280;63801;49.414;19.474;2023-06-14T06:16:53;93701.63;;;13.07;72.43
75219;BME280;63801;49.414;19.474;2023-06-14T06:18:53;93708.22;;;13.10;71.47
75219;BME280;63801;49.414;19.474;2023-06-14T06:20:54;93708.16;;;13.06;71.73
75219;BME280;63801;49.414;19.474;2023-06-14T06:22:55;93706.66;;;13.09;71.73
75219;BME280;63801;49.414;19.474;2023-06-14T06:24:56;93706.31;;;13.11;71.80
75219;BME280;63801;49.414;19.474;2023-06-14T06:26:56;93707.63;;;13.20;72.08
75219;BME280;63801;49.414;19.474;2023-06-14T06:28:56;93705.47;;;13.33;71.88
75219;BME280;63801;49.414;19.474;2023-06-14T06:30:57;93707.25;;;13.48;72.04
75219;BME280;63801;49.414;19.474;2023-06-14T06:32:57;93703.16;;;13.61;71.70
75219;BME280;63801;49.414;19.474;2023-06-14T06:34:58;93711.47;;;13.75;71.59
75219;BME280;63801;49.414;19.474;2023-06-14T06:36:59;93710.09;;;13.92;71.42
75219;BME280;63801;49.414;19.474;2023-06-14T06:39:01;93704.84;;;14.06;71.86
75219;BME280;63801;49.414;19.474;2023-06-14T06:41:01;93703.03;;;14.21;70.59
75219;BME280;63801;49.414;19.474;2023-06-14T06:43:02;93711.78;;;14.37;70.52
75219;BME280;63801;49.414;19.474;2023-06-14T06:45:04;93720.06;;;14.51;70.27
75219;BME280;63801;49.414;19.474;2023-06-14T06:47:04;93726.38;;;14.66;70.19
75219;BME280;63801;49.414;19.474;2023-06-14T06:49:06;93733.50;;;14.81;69.71
75219;BME280;63801;49.414;19.474;2023-06-14T06:51:06;93729.72;;;14.93;69.76
75219;BME280;63801;49.414;19.474;2023-06-14T06:53:06;93732.53;;;15.07;69.63
75219;BME280;63801;49.414;19.474;2023-06-14T06:55:07;93727.16;;;15.14;69.08
75219;BME280;63801;49.414;19.474;2023-06-14T06:57:09;93723.72;;;15.20;68.00
75219;BME280;63801;49.414;19.474;2023-06-14T06:59:10;93719.84;;;15.21;67.84
75219;BME280;63801;49.414;19.474;2023-06-14T07:01:13;93727.31;;;15.35;67.52
75219;BME280;63801;49.414;19.474;2023-06-14T07:03:14;93726.31;;;15.57;67.98
75219;BME280;63801;49.414;19.474;2023-06-14T07:05:14;93735.75;;;15.78;67.11
75219;BME280;63801;49.414;19.474;2023-06-14T07:07:14;93738.91;;;15.94;66.16
75219;BME280;63801;49.414;19.474;2023-06-14T07:09:15;93737.41;;;16.07;66.24
75219;BME280;63801;49.414;19.474;2023-06-14T07:11:16;93727.91;;;16.66;66.54
75219;BME280;63801;49.414;19.474;2023-06-14T07:13:16;93729.44;;;17.63;65.92
75219;BME280;63801;49.414;19.474;2023-06-14T07:15:16;93733.72;;;18.72;64.07
75219;BME280;63801;49.414;19.474;2023-06-14T07:17:17;93732.38;;;19.87;63.20
75219;BME280;63801;49.414;19.474;2023-06-14T07:19:17;93737.78;;;20.88;60.11
75219;BME280;63801;49.414;19.474;2023-06-14T07:21:18;93732.09;;;21.76;58.30
75219;BME280;63801;49.414;19.474;2023-06-14T07:23:18;93728.63;;;22.54;57.23
75219;BME280;63801;49.414;19.474;2023-06-14T07:25:19;93731.38;;;23.10;55.83
75219;BME280;63801;49.414;19.474;2023-06-14T07:27:20;93726.81;;;23.36;55.26
75219;BME280;63801;49.414;19.474;2023-06-14T07:29:20;93722.59;;;23.31;54.39
75219;BME280;63801;49.414;19.474;2023-06-14T07:31:21;93718.25;;;23.50;54.02
75219;BME280;63801;49.414;19.474;2023-06-14T07:33:21;93718.28;;;23.79;53.91
75219;BME280;63801;49.414;19.474;2023-06-14T07:35:22;93723.06;;;24.07;53.24
75219;BME280;63801;49.414;19.474;2023-06-14T07:37:22;93733.03;;;24.17;51.97
75219;BME280;63801;49.414;19.474;2023-06-14T07:39:23;93734.00;;;24.39;51.02
75219;BME280;63801;49.414;19.474;2023-06-14T07:41:23;93716.34;;;24.37;50.17
75219;BME280;63801;49.414;19.474;2023-06-14T07:43:24;93721.56;;;24.47;49.76
75219;BME280;63801;49.414;19.474;2023-06-14T07:45:24;93716.66;;;24.68;49.87
75219;BME280;63801;49.414;19.474;2023-06-14T07:47:24;93720.84;;;24.85;48.53
75219;BME280;63801;49.414;19.474;2023-06-14T07:49:26;93711.09;;;25.09;47.71
75219;BME280;63801;49.414;19.474;2023-06-14T07:51:26;93713.06;;;25.21;46.69
75219;BME280;63801;49.414;19.474;2023-06-14T07:53:26;93721.47;;;25.18;46.02
75219;BME280;63801;49.414;19.474;2023-06-14T07:55:27;93725.31;;;25.08;45.56
75219;BME280;63801;49.414;19.474;2023-06-14T07:57:28;93723.09;;;25.15;45.18
75219;BME280;63801;49.414;19.474;2023-06-14T07:59:28;93729.38;;;25.41;44.32
75219;BME280;63801;49.414;19.474;2023-06-14T08:01:28;93734.56;;;25.52;44.15
75219;BME280;63801;49.414;19.474;2023-06-14T08:03:29;93726.06;;;25.46;43.69
75219;BME280;63801;49.414;19.474;2023-06-14T08:05:30;93727.53;;;25.00;43.62
75219;BME280;63801;49.414;19.474;2023-06-14T08:07:31;93728.06;;;24.95;44.03
75219;BME280;63801;49.414;19.474;2023-06-14T08:09:31;93725.09;;;24.89;44.03
75219;BME280;63801;49.414;19.474;2023-06-14T08:11:31;93717.97;;;24.76;43.98
75219;BME280;63801;49.414;19.474;2023-06-14T08:13:32;93711.88;;;24.43;44.20
75219;BME280;63801;49.414;19.474;2023-06-14T08:15:32;93716.53;;;24.01;44.21
75219;BME280;63801;49.414;19.474;2023-06-14T08:17:33;93714.00;;;23.29;44.95
75219;BME280;63801;49.414;19.474;2023-06-14T08:19:34;93711.69;;;22.75;45.49
75219;BME280;63801;49.414;19.474;2023-06-14T08:21:34;93708.66;;;22.34;46.12
75219;BME280;63801;49.414;19.474;2023-06-14T08:23:36;93710.28;;;22.12;47.54
75219;BME280;63801;49.414;19.474;2023-06-14T08:25:36;93707.13;;;21.90;47.38
75219;BME280;63801;49.414;19.474;2023-06-14T08:27:37;93712.19;;;21.48;47.75
75219;BME280;63801;49.414;19.474;2023-06-14T08:29:37;93710.53;;;21.04;48.66
75219;BME280;63801;49.414;19.474;2023-06-14T08:31:40;93719.59;;;20.75;49.17
75219;BME280;63801;49.414;19.474;2023-06-14T08:33:40;93712.63;;;20.40;49.14
75219;BME280;63801;49.414;19.474;2023-06-14T08:35:43;93715.78;;;20.01;49.88
75219;BME280;63801;49.414;19.474;2023-06-14T08:37:44;93714.91;;;19.77;50.67
75219;BME280;63801;49.414;19.474;2023-06-14T08:39:45;93715.38;;;19.68;51.46
75219;BME280;63801;49.414;19.474;2023-06-14T08:41:46;93723.69;;;19.58;51.49
75219;BME280;63801;49.414;19.474;2023-06-14T08:43:50;93720.28;;;19.43;51.81
75219;BME280;63801;49.414;19.474;2023-06-14T08:45:54;93719.47;;;19.50;51.87
75219;BME280;63801;49.414;19.474;2023-06-14T08:47:58;93721.03;;;19.47;52.32
75219;BME280;63801;49.414;19.474;2023-06-14T08:49:59;93728.09;;;19.45;52.50
75219;BME280;63801;49.414;19.474;2023-06-14T08:52:00;93718.03;;;19.31;51.98
75219;BME280;63801;49.414;19.474;2023-06-14T08:54:01;93720.56;;;19.08;52.07
75219;BME280;63801;49.414;19.474;2023-06-14T08:56:02;93717.53;;;18.95;53.01
75219;BME280;63801;49.414;19.474;2023-06-14T08:58:05;93722.59;;;19.00;52.25
75219;BME280;63801;49.414;19.474;2023-06-14T09:00:06;93713.72;;;18.82;52.23
75219;BME280;63801;49.414;19.474;2023-06-14T09:02:13;93726.22;;;18.83;52.71
75219;BME280;63801;49.414;19.474;2023-06-14T09:04:14;93714.88;;;18.88;52.67
75219;BME280;63801;49.414;19.474;2023-06-14T09:06:16;93719.16;;;18.89;52.88
75219;BME280;63801;49.414;19.474;2023-06-14T09:08:19;93722.25;;;18.91;53.56
75219;BME280;63801;49.414;19.474;2023-06-14T09:10:22;93727.34;;;18.89;53.03
75219;BME280;63801;49.414;19.474;2023-06-14T09:12:23;93718.41;;;18.85;52.85
75219;BME280;63801;49.414;19.474;2023-06-14T09:14:23;93726.97;;;18.87;52.44
75219;BME280;63801;49.414;19.474;2023-06-14T09:16:25;93718.38;;;18.89;52.55
75219;BME280;63801;49.414;19.474;2023-06-14T09:18:38;93717.97;;;18.90;52.67
75219;BME280;63801;49.414;19.474;2023-06-14T09:20:39;93710.63;;;18.83;52.10
75219;BME280;63801;49.414;19.474;2023-06-14T09:22:40;93714.91;;;18.81;52.26
75219;BME280;63801;49.414;19.474;2023-06-14T09:24:41;93716.50;;;18.78;51.84
75219;BME280;63801;49.414;19.474;2023-06-14T09:26:42;93708.75;;;18.70;51.83
75219;BME280;63801;49.414;19.474;2023-06-14T09:28:47;93710.34;;;18.64;52.74
75219;BME280;63801;49.414;19.474;2023-06-14T09:30:47;93715.41;;;18.65;53.13
75219;BME280;63801;49.414;19.474;2023-06-14T09:32:48;93707.22;;;18.65;53.18
75219;BME280;63801;49.414;19.474;2023-06-14T09:34:48;93712.63;;;18.72;53.25
75219;BME280;63801;49.414;19.474;2023-06-14T09:36:48;93707.91;;;18.80;53.14
75219;BME280;63801;49.414;19.474;2023-06-14T09:38:56;93705.19;;;18.80;53.03
75219;BME280;63801;49.414;19.474;2023-06-14T09:40:58;93707.13;;;18.79;52.90
75219;BME280;63801;49.414;19.474;2023-06-14T09:42:58;93711.00;;;18.82;52.83
75219;BME280;63801;49.414;19.474;2023-06-14T09:44:59;93704.41;;;18.79;52.30
75219;BME280;63801;49.414;19.474;2023-06-14T09:47:01;93692.69;;;18.79;52.94
75219;BME280;63801;49.414;19.474;2023-06-14T09:49:03;93705.88;;;18.91;53.14
75219;BME280;63801;49.414;19.474;2023-06-14T09:51:04;93696.00;;;19.04;52.71
75219;BME280;63801;49.414;19.474;2023-06-14T09:53:07;93696.31;;;19.13;52.59
75219;BME280;63801;49.414;19.474;2023-06-14T09:55:12;93697.81;;;19.21;52.34
75219;BME280;63801;49.414;19.474;2023-06-14T09:57:17;93709.47;;;19.25;51.88
75219;BME280;63801;49.414;19.474;2023-06-14T09:59:25;93706.44;;;19.16;51.55
75219;BME280;63801;49.414;19.474;2023-06-14T10:01:30;93708.09;;;19.07;52.06
75219;BME280;63801;49.414;19.474;2023-06-14T10:03:31;93704.19;;;19.04;51.62
75219;BME280;63801;49.414;19.474;2023-06-14T10:05:35;93688.22;;;18.99;51.65
75219;BME280;63801;49.414;19.474;2023-06-14T10:10:02;93699.47;;;19.08;51.76
75219;BME280;63801;49.414;19.474;2023-06-14T10:12:03;93706.41;;;19.23;51.45
75219;BME280;63801;49.414;19.474;2023-06-14T10:14:05;93699.28;;;19.33;50.99
75219;BME280;63801;49.414;19.474;2023-06-14T10:16:14;93692.19;;;19.39;50.89
75219;BME280;63801;49.414;19.474;2023-06-14T10:18:40;93682.00;;;19.43;50.57
75219;BME280;63801;49.414;19.474;2023-06-14T10:22:57;93699.16;;;19.47;49.41
75219;BME280;63801;49.414;19.474;2023-06-14T10:24:59;93693.75;;;19.40;49.79
75219;BME280;63801;49.414;19.474;2023-06-14T10:27:01;93697.28;;;19.37;49.66
75219;BME280;63801;49.414;19.474;2023-06-14T10:29:07;93698.94;;;19.27;49.84
75219;BME280;63801;49.414;19.474;2023-06-14T10:31:10;93692.34;;;19.21;50.02
75219;BME280;63801;49.414;19.474;2023-06-14T10:33:14;93692.34;;;19.25;50.43
75219;BME280;63801;49.414;19.474;2023-06-14T10:35:16;93698.84;;;19.38;50.48
75219;BME280;63801;49.414;19.474;2023-06-14T10:37:16;93705.44;;;19.44;49.86
75219;BME280;63801;49.414;19.474;2023-06-14T10:39:17;93688.25;;;19.44;49.71
75219;BME280;63801;49.414;19.474;2023-06-14T10:41:18;93692.16;;;19.43;50.18
75219;BME280;63801;49.414;19.474;2023-06-14T10:43:23;93694.41;;;19.55;50.23
75219;BME280;63801;49.414;19.474;2023-06-14T10:45:23;93687.31;;;19.61;50.24